sensor_id;sensor_type;location;lat;lon;timestamp;P1;durP1;ratioP1;P2;durP2;ratioP2
81607;SDS011;71022;48.122;11.576;2024-03-07T00:00:10;8.43;;;3.15;;
81607;SDS011;71022;48.122;11.576;2024-03-07T00:02:44;9.43;;;3.40;;
81607;SDS011;71022;48.122;11.576;2024-03-07T00:05:12;9.48;;;3.15;;
81607;SDS011;71022;48.122;11.576;2024-03-07T00:07:40;9.63;;;3.70;;
81607;SDS011;71022;48.122;11.576;2024-03-07T00:10:08;9.20;;;3.60;;
81607;SDS011;71022;48.122;11.576;2024-03-07T00:12:36;8.90;;;3.60;;
81607;SDS011;71022;48.122;11.576;2024-03-07T00:15:08;9.60;;;3.35;;
81607;SDS011;71022;48.122;11.576;2024-03-07T00:17:38;9.07;;;3.70;;
81607;SDS011;71022;48.122;11.576;2024-03-07T00:20:06;11.63;;;3.72;;
81607;SDS011;71022;48.122;11.576;2024-03-07T00:22:42;10.70;;;4.20;;
81607;SDS011;71022;48.122;11.576;2024-03-07T00:25:09;10.90;;;4.20;;
81607;SDS011;71022;48.122;11.576;2024-03-07T00:27:38;11.85;;;4.30;;
81607;SDS011;71022;48.122;11.576;2024-03-07T00:30:05;9.52;;;3.63;;
81607;SDS011;71022;48.122;11.576;2024-03-07T00:32:36;11.63;;;4.32;;
81607;SDS011;71022;48.122;11.576;2024-03-07T00:35:06;10.38;;;4.15;;
81607;SDS011;71022;48.122;11.576;2024-03-07T00:37:37;12.23;;;4.63;;
81607;SDS011;71022;48.122;11.576;2024-03-07T00:40:04;11.55;;;4.65;;
81607;SDS011;71022;48.122;11.576;2024-03-07T00:42:33;10.68;;;3.58;;
81607;SDS011;71022;48.122;11.576;2024-03-07T00:45:00;11.52;;;4.25;;
81607;SDS011;71022;48.122;11.576;2024-03-07T00:47:28;10.13;;;3.42;;
81607;SDS011;71022;48.122;11.576;2024-03-07T00:49:56;11.77;;;4.70;;
81607;SDS011;71022;48.122;11.576;2024-03-07T00:52:23;13.50;;;4.93;;
81607;SDS011;71022;48.122;11.576;2024-03-07T00:54:52;13.95;;;5.00;;
81607;SDS011;71022;48.122;11.576;2024-03-07T00:57:19;14.18;;;4.70;;
81607;SDS011;71022;48.122;11.576;2024-03-07T00:59:46;16.00;;;5.50;;
81607;SDS011;71022;48.122;11.576;2024-03-07T01:02:15;12.45;;;4.95;;
81607;SDS011;71022;48.122;11.576;2024-03-07T01:04:44;12.20;;;4.40;;
81607;SDS011;71022;48.122;11.576;2024-03-07T01:07:11;12.13;;;4.40;;
81607;SDS011;71022;48.122;11.576;2024-03-07T01:09:38;12.35;;;4.35;;
81607;SDS011;71022;48.122;11.576;2024-03-07T01:12:06;11.95;;;4.10;;
81607;SDS011;71022;48.122;11.576;2024-03-07T01:14:33;12.15;;;4.47;;
81607;SDS011;71022;48.122;11.576;2024-03-07T01:17:00;14.20;;;5.22;;
81607;SDS011;71022;48.122;11.576;2024-03-07T01:19:27;13.30;;;4.63;;
81607;SDS011;71022;48.122;11.576;2024-03-07T01:21:55;12.70;;;4.38;;
81607;SDS011;71022;48.122;11.576;2024-03-07T01:24:22;12.98;;;4.53;;
81607;SDS011;71022;48.122;11.576;2024-03-07T01:26:49;13.25;;;5.13;;
81607;SDS011;71022;48.122;11.576;2024-03-07T01:29:17;13.80;;;4.95;;
81607;SDS011;71022;48.122;11.576;2024-03-07T01:31:44;12.93;;;4.38;;
81607;SDS011;71022;48.122;11.576;2024-03-07T01:34:14;12.80;;;5.13;;
81607;SDS011;71022;48.122;11.576;2024-03-07T01:36:41;13.63;;;5.35;;
81607;SDS011;71022;48.122;11.576;2024-03-07T01:39:08;14.15;;;5.32;;
81607;SDS011;71022;48.122;11.576;2024-03-07T01:41:37;14.50;;;4.90;;
81607;SDS011;71022;48.122;11.576;2024-03-07T01:44:04;15.48;;;5.40;;
81607;SDS011;71022;48.122;11.576;2024-03-07T01:46:31;14.75;;;5.15;;
81607;SDS011;71022;48.122;11.576;2024-03-07T01:48:59;15.13;;;5.30;;
81607;SDS011;71022;48.122;11.576;2024-03-07T01:51:26;15.40;;;5.68;;
81607;SDS011;71022;48.122;11.576;2024-03-07T01:53:54;14.65;;;5.82;;
81607;SDS011;71022;48.122;11.576;2024-03-07T01:56:21;14.15;;;5.32;;
81607;SDS011;71022;48.122;11.576;2024-03-07T01:58:49;14.68;;;5.47;;
81607;SDS011;71022;48.122;11.576;2024-03-07T02:01:18;15.15;;;5.45;;
81607;SDS011;71022;48.122;11.576;2024-03-07T02:03:46;16.88;;;5.90;;
81607;SDS011;71022;48.122;11.576;2024-03-07T02:06:13;16.05;;;5.95;;
81607;SDS011;71022;48.122;11.576;2024-03-07T02:08:41;15.20;;;5.85;;
81607;SDS011;71022;48.122;11.576;2024-03-07T02:11:08;20.60;;;6.82;;
81607;SDS011;71022;48.122;11.576;2024-03-07T02:13:36;19.38;;;5.80;;
81607;SDS011;71022;48.122;11.576;2024-03-07T02:16:04;16.38;;;6.15;;
81607;SDS011;71022;48.122;11.576;2024-03-07T02:18:31;18.38;;;6.45;;
81607;SDS011;71022;48.122;11.576;2024-03-07T02:20:59;17.83;;;6.60;;
81607;SDS011;71022;48.122;11.576;2024-03-07T02:23:27;20.10;;;6.65;;
81607;SDS011;71022;48.122;11.576;2024-03-07T02:25:54;16.77;;;6.72;;
81607;SDS011;71022;48.122;11.576;2024-03-07T02:28:22;16.75;;;6.15;;
81607;SDS011;71022;48.122;11.576;2024-03-07T02:30:49;16.55;;;6.47;;
81607;SDS011;71022;48.122;11.576;2024-03-07T02:33:16;17.75;;;6.80;;
81607;SDS011;71022;48.122;11.576;2024-03-07T02:35:43;17.10;;;6.20;;
81607;SDS011;71022;48.122;11.576;2024-03-07T02:38:11;16.10;;;6.80;;
81607;SDS011;71022;48.122;11.576;2024-03-07T02:40:38;17.80;;;6.63;;
81607;SDS011;71022;48.122;11.576;2024-03-07T02:43:05;18.48;;;6.82;;
81607;SDS011;71022;48.122;11.576;2024-03-07T02:45:34;17.42;;;6.75;;
81607;SDS011;71022;48.122;11.576;2024-03-07T02:48:01;19.88;;;7.55;;
81607;SDS011;71022;48.122;11.576;2024-03-07T02:50:28;17.38;;;7.00;;
81607;SDS011;71022;48.122;11.576;2024-03-07T02:52:57;18.77;;;7.03;;
81607;SDS011;71022;48.122;11.576;2024-03-07T02:55:24;17.77;;;7.00;;
81607;SDS011;71022;48.122;11.576;2024-03-07T02:57:51;18.17;;;7.60;;
81607;SDS011;71022;48.122;11.576;2024-03-07T03:00:19;19.20;;;7.60;;
81607;SDS011;71022;48.122;11.576;2024-03-07T03:02:47;19.02;;;7.53;;
81607;SDS011;71022;48.122;11.576;2024-03-07T03:05:16;21.75;;;8.38;;
81607;SDS011;71022;48.122;11.576;2024-03-07T03:07:45;22.60;;;9.57;;
81607;SDS011;71022;48.122;11.576;2024-03-07T03:10:24;19.98;;;8.20;;
81607;SDS011;71022;48.122;11.576;2024-03-07T03:12:54;26.08;;;10.07;;
81607;SDS011;71022;48.122;11.576;2024-03-07T03:15:22;25.63;;;9.23;;
81607;SDS011;71022;48.122;11.576;2024-03-07T03:17:50;23.98;;;9.52;;
81607;SDS011;71022;48.122;11.576;2024-03-07T03:20:19;24.15;;;9.15;;
81607;SDS011;71022;48.122;11.576;2024-03-07T03:22:53;23.80;;;9.68;;
81607;SDS011;71022;48.122;11.576;2024-03-07T03:25:41;24.42;;;8.98;;
81607;SDS011;71022;48.122;11.576;2024-03-07T03:28:09;22.02;;;8.45;;
81607;SDS011;71022;48.122;11.576;2024-03-07T03:30:37;24.17;;;10.38;;
81607;SDS011;71022;48.122;11.576;2024-03-07T03:33:05;25.33;;;9.98;;
81607;SDS011;71022;48.122;11.576;2024-03-07T03:35:34;25.23;;;9.52;;
81607;SDS011;71022;48.122;11.576;2024-03-07T03:38:01;23.88;;;9.73;;
81607;SDS011;71022;48.122;11.576;2024-03-07T03:40:29;24.27;;;10.15;;
81607;SDS011;71022;48.122;11.576;2024-03-07T03:42:56;24.38;;;9.60;;
81607;SDS011;71022;48.122;11.576;2024-03-07T03:45:24;25.30;;;10.52;;
81607;SDS011;71022;48.122;11.576;2024-03-07T03:47:53;23.02;;;8.88;;
81607;SDS011;71022;48.122;11.576;2024-03-07T03:50:21;26.17;;;10.18;;
81607;SDS011;71022;48.122;11.576;2024-03-07T03:52:51;27.55;;;10.55;;
81607;SDS011;71022;48.122;11.576;2024-03-07T03:55:18;26.63;;;9.50;;
81607;SDS011;71022;48.122;11.576;2024-03-07T03:57:47;23.58;;;9.68;;
81607;SDS011;71022;48.122;11.576;2024-03-07T04:00:16;23.05;;;10.18;;
81607;SDS011;71022;48.122;11.576;2024-03-07T04:02:44;24.33;;;10.32;;
81607;SDS011;71022;48.122;11.576;2024-03-07T04:07:45;24.15;;;9.45;;
81607;SDS011;71022;48.122;11.576;2024-03-07T04:10:12;24.05;;;9.27;;
81607;SDS011;71022;48.122;11.576;2024-03-07T04:12:42;25.08;;;10.57;;
81607;SDS011;71022;48.122;11.576;2024-03-07T04:15:10;26.17;;;10.15;;
81607;SDS011;71022;48.122;11.576;2024-03-07T04:17:38;25.17;;;10.65;;
81607;SDS011;71022;48.122;11.576;2024-03-07T04:20:06;24.98;;;11.10;;
81607;SDS011;71022;48.122;11.576;2024-03-07T04:22:34;25.20;;;10.45;;
81607;SDS011;71022;48.122;11.576;2024-03-07T04:25:02;25.50;;;9.80;;
81607;SDS011;71022;48.122;11.576;2024-03-07T04:27:29;24.50;;;10.48;;
81607;SDS011;71022;48.122;11.576;2024-03-07T04:29:57;27.10;;;10.82;;
81607;SDS011;71022;48.122;11.576;2024-03-07T04:32:24;24.90;;;10.70;;
81607;SDS011;71022;48.122;11.576;2024-03-07T04:34:52;25.85;;;11.32;;
81607;SDS011;71022;48.122;11.576;2024-03-07T04:37:19;25.92;;;9.85;;
81607;SDS011;71022;48.122;11.576;2024-03-07T04:39:46;23.55;;;10.10;;
81607;SDS011;71022;48.122;11.576;2024-03-07T04:42:13;26.77;;;11.20;;
81607;SDS011;71022;48.122;11.576;2024-03-07T04:44:40;28.55;;;11.18;;
81607;SDS011;71022;48.122;11.576;2024-03-07T04:47:08;23.95;;;10.35;;
81607;SDS011;71022;48.122;11.576;2024-03-07T04:49:35;29.27;;;11.65;;
81607;SDS011;71022;48.122;11.576;2024-03-07T04:52:03;28.88;;;10.75;;
81607;SDS011;71022;48.122;11.576;2024-03-07T04:54:32;25.02;;;10.98;;
81607;SDS011;71022;48.122;11.576;2024-03-07T04:56:59;27.77;;;10.98;;
81607;SDS011;71022;48.122;11.576;2024-03-07T04:59:26;25.67;;;10.55;;
81607;SDS011;71022;48.122;11.576;2024-03-07T05:01:53;26.65;;;10.43;;
81607;SDS011;71022;48.122;11.576;2024-03-07T05:04:21;28.00;;;11.63;;
81607;SDS011;71022;48.122;11.576;2024-03-07T05:06:50;30.08;;;12.18;;
81607;SDS011;71022;48.122;11.576;2024-03-07T05:09:17;29.13;;;11.13;;
81607;SDS011;71022;48.122;11.576;2024-03-07T05:11:52;26.67;;;10.45;;
81607;SDS011;71022;48.122;11.576;2024-03-07T05:14:20;31.05;;;10.90;;
81607;SDS011;71022;48.122;11.576;2024-03-07T05:16:52;30.73;;;12.10;;
81607;SDS011;71022;48.122;11.576;2024-03-07T05:19:32;27.38;;;11.35;;
81607;SDS011;71022;48.122;11.576;2024-03-07T05:22:00;30.80;;;10.93;;
81607;SDS011;71022;48.122;11.576;2024-03-07T05:24:29;29.33;;;11.77;;
81607;SDS011;71022;48.122;11.576;2024-03-07T05:26:57;28.77;;;11.70;;
81607;SDS011;71022;48.122;11.576;2024-03-07T05:29:24;30.17;;;11.48;;
81607;SDS011;71022;48.122;11.576;2024-03-07T05:31:52;28.10;;;11.50;;
81607;SDS011;71022;48.122;11.576;2024-03-07T05:34:19;29.67;;;11.27;;
81607;SDS011;71022;48.122;11.576;2024-03-07T05:36:46;30.00;;;11.73;;
81607;SDS011;71022;48.122;11.576;2024-03-07T05:39:15;28.65;;;11.93;;
81607;SDS011;71022;48.122;11.576;2024-03-07T05:41:44;32.78;;;11.82;;
81607;SDS011;71022;48.122;11.576;2024-03-07T05:44:13;28.23;;;11.30;;
81607;SDS011;71022;48.122;11.576;2024-03-07T05:46:41;32.40;;;13.07;;
81607;SDS011;71022;48.122;11.576;2024-03-07T05:51:41;30.50;;;12.20;;
81607;SDS011;71022;48.122;11.576;2024-03-07T05:54:12;27.17;;;10.55;;
81607;SDS011;71022;48.122;11.576;2024-03-07T05:56:40;29.33;;;11.93;;
81607;SDS011;71022;48.122;11.576;2024-03-07T05:59:08;31.02;;;12.10;;
81607;SDS011;71022;48.122;11.576;2024-03-07T06:01:39;30.33;;;12.05;;
81607;SDS011;71022;48.122;11.576;2024-03-07T06:04:07;29.77;;;11.00;;
81607;SDS011;71022;48.122;11.576;2024-03-07T06:06:37;30.85;;;11.63;;
81607;SDS011;71022;48.122;11.576;2024-03-07T06:09:06;29.27;;;11.57;;
81607;SDS011;71022;48.122;11.576;2024-03-07T06:11:38;28.75;;;10.68;;
81607;SDS011;71022;48.122;11.576;2024-03-07T06:14:06;30.48;;;11.95;;
81607;SDS011;71022;48.122;11.576;2024-03-07T06:16:37;29.75;;;11.93;;
81607;SDS011;71022;48.122;11.576;2024-03-07T06:19:06;27.48;;;11.65;;
81607;SDS011;71022;48.122;11.576;2024-03-07T06:21:37;28.42;;;11.93;;
81607;SDS011;71022;48.122;11.576;2024-03-07T06:24:09;29.88;;;12.32;;
81607;SDS011;71022;48.122;11.576;2024-03-07T06:26:38;30.58;;;12.15;;
81607;SDS011;71022;48.122;11.576;2024-03-07T06:29:13;30.25;;;12.23;;
81607;SDS011;71022;48.122;11.576;2024-03-07T06:31:44;29.88;;;11.88;;
81607;SDS011;71022;48.122;11.576;2024-03-07T06:34:16;29.02;;;11.95;;
81607;SDS011;71022;48.122;11.576;2024-03-07T06:36:44;29.75;;;12.30;;
81607;SDS011;71022;48.122;11.576;2024-03-07T06:39:11;31.60;;;12.15;;
81607;SDS011;71022;48.122;11.576;2024-03-07T06:41:39;29.88;;;12.23;;
81607;SDS011;71022;48.122;11.576;2024-03-07T06:44:07;30.27;;;11.60;;
81607;SDS011;71022;48.122;11.576;2024-03-07T06:46:36;32.00;;;12.45;;
81607;SDS011;71022;48.122;11.576;2024-03-07T06:49:04;31.83;;;12.38;;
81607;SDS011;71022;48.122;11.576;2024-03-07T06:51:37;28.52;;;12.25;;
81607;SDS011;71022;48.122;11.576;2024-03-07T06:54:06;31.58;;;12.85;;
81607;SDS011;71022;48.122;11.576;2024-03-07T06:56:33;28.02;;;11.50;;
81607;SDS011;71022;48.122;11.576;2024-03-07T06:59:00;32.45;;;12.65;;
81607;SDS011;71022;48.122;11.576;2024-03-07T07:01:31;31.45;;;12.38;;
81607;SDS011;71022;48.122;11.576;2024-03-07T07:03:58;28.88;;;12.20;;
81607;SDS011;71022;48.122;11.576;2024-03-07T07:06:30;29.48;;;11.60;;
81607;SDS011;71022;48.122;11.576;2024-03-07T07:08:58;30.73;;;11.15;;
81607;SDS011;71022;48.122;11.576;2024-03-07T07:11:26;33.30;;;12.65;;
81607;SDS011;71022;48.122;11.576;2024-03-07T07:13:59;27.92;;;11.18;;
81607;SDS011;71022;48.122;11.576;2024-03-07T07:16:26;29.88;;;12.10;;
81607;SDS011;71022;48.122;11.576;2024-03-07T07:18:54;29.50;;;12.10;;
81607;SDS011;71022;48.122;11.576;2024-03-07T07:21:22;28.00;;;11.88;;
81607;SDS011;71022;48.122;11.576;2024-03-07T07:23:49;31.50;;;11.57;;
81607;SDS011;71022;48.122;11.576;2024-03-07T07:26:16;36.45;;;12.85;;
81607;SDS011;71022;48.122;11.576;2024-03-07T07:28:44;28.85;;;11.90;;
81607;SDS011;71022;48.122;11.576;2024-03-07T07:31:11;32.17;;;12.60;;
81607;SDS011;71022;48.122;11.576;2024-03-07T07:33:38;28.00;;;12.40;;
81607;SDS011;71022;48.122;11.576;2024-03-07T07:36:05;29.35;;;12.32;;
81607;SDS011;71022;48.122;11.576;2024-03-07T07:38:33;34.40;;;12.48;;
81607;SDS011;71022;48.122;11.576;2024-03-07T07:41:01;26.77;;;11.80;;
81607;SDS011;71022;48.122;11.576;2024-03-07T07:43:28;29.67;;;11.68;;
81607;SDS011;71022;48.122;11.576;2024-03-07T07:46:08;31.52;;;11.98;;
81607;SDS011;71022;48.122;11.576;2024-03-07T07:48:36;31.38;;;12.27;;
81607;SDS011;71022;48.122;11.576;2024-03-07T07:51:03;28.92;;;11.68;;
81607;SDS011;71022;48.122;11.576;2024-03-07T07:53:32;28.17;;;11.18;;
81607;SDS011;71022;48.122;11.576;2024-03-07T07:55:59;29.63;;;11.63;;
81607;SDS011;71022;48.122;11.576;2024-03-07T07:58:27;28.63;;;11.70;;
81607;SDS011;71022;48.122;11.576;2024-03-07T08:00:54;29.83;;;10.93;;
81607;SDS011;71022;48.122;11.576;2024-03-07T08:03:22;30.60;;;11.70;;
81607;SDS011;71022;48.122;11.576;2024-03-07T08:05:50;31.60;;;12.75;;
81607;SDS011;71022;48.122;11.576;2024-03-07T08:08:17;30.20;;;11.85;;
81607;SDS011;71022;48.122;11.576;2024-03-07T08:10:46;29.25;;;11.13;;
81607;SDS011;71022;48.122;11.576;2024-03-07T08:13:14;31.55;;;12.13;;
81607;SDS011;71022;48.122;11.576;2024-03-07T08:15:41;30.45;;;11.77;;
81607;SDS011;71022;48.122;11.576;2024-03-07T08:18:09;28.33;;;11.30;;
81607;SDS011;71022;48.122;11.576;2024-03-07T08:20:38;33.33;;;12.10;;
81607;SDS011;71022;48.122;11.576;2024-03-07T08:23:07;29.20;;;12.38;;
81607;SDS011;71022;48.122;11.576;2024-03-07T08:25:35;31.40;;;11.93;;
81607;SDS011;71022;48.122;11.576;2024-03-07T08:28:02;30.42;;;11.43;;
81607;SDS011;71022;48.122;11.576;2024-03-07T08:30:32;31.13;;;12.85;;
81607;SDS011;71022;48.122;11.576;2024-03-07T08:32:59;31.50;;;12.55;;
81607;SDS011;71022;48.122;11.576;2024-03-07T08:35:30;28.45;;;10.85;;
81607;SDS011;71022;48.122;11.576;2024-03-07T08:38:00;32.55;;;12.73;;
81607;SDS011;71022;48.122;11.576;2024-03-07T08:40:28;31.08;;;12.88;;
81607;SDS011;71022;48.122;11.576;2024-03-07T08:43:00;33.85;;;12.23;;
81607;SDS011;71022;48.122;11.576;2024-03-07T08:45:29;28.92;;;11.23;;
81607;SDS011;71022;48.122;11.576;2024-03-07T08:48:00;31.52;;;12.48;;
81607;SDS011;71022;48.122;11.576;2024-03-07T08:50:27;32.35;;;11.98;;
81607;SDS011;71022;48.122;11.576;2024-03-07T08:52:55;30.33;;;12.13;;
81607;SDS011;71022;48.122;11.576;2024-03-07T08:55:23;31.25;;;12.00;;
81607;SDS011;71022;48.122;11.576;2024-03-07T08:57:53;25.98;;;10.88;;
81607;SDS011;71022;48.122;11.576;2024-03-07T09:00:21;29.38;;;10.95;;
81607;SDS011;71022;48.122;11.576;2024-03-07T09:05:20;28.58;;;10.48;;
81607;SDS011;71022;48.122;11.576;2024-03-07T09:07:51;29.13;;;11.82;;
81607;SDS011;71022;48.122;11.576;2024-03-07T09:10:19;30.08;;;12.45;;
81607;SDS011;71022;48.122;11.576;2024-03-07T09:12:48;29.83;;;11.52;;
81607;SDS011;71022;48.122;11.576;2024-03-07T09:15:17;29.45;;;11.77;;
81607;SDS011;71022;48.122;11.576;2024-03-07T09:17:46;28.08;;;11.07;;
81607;SDS011;71022;48.122;11.576;2024-03-07T09:20:14;27.73;;;10.48;;
81607;SDS011;71022;48.122;11.576;2024-03-07T09:22:42;26.45;;;11.25;;
81607;SDS011;71022;48.122;11.576;2024-03-07T09:25:10;30.20;;;11.75;;
81607;SDS011;71022;48.122;11.576;2024-03-07T09:27:40;28.45;;;11.18;;
81607;SDS011;71022;48.122;11.576;2024-03-07T09:30:08;29.92;;;11.02;;
81607;SDS011;71022;48.122;11.576;2024-03-07T09:32:39;26.27;;;11.43;;
81607;SDS011;71022;48.122;11.576;2024-03-07T09:35:08;29.50;;;11.48;;
81607;SDS011;71022;48.122;11.576;2024-03-07T09:37:39;26.48;;;10.82;;
81607;SDS011;71022;48.122;11.576;2024-03-07T09:40:11;28.48;;;12.40;;
81607;SDS011;71022;48.122;11.576;2024-03-07T09:42:46;26.02;;;11.18;;
81607;SDS011;71022;48.122;11.576;2024-03-07T09:45:20;28.10;;;11.00;;
81607;SDS011;71022;48.122;11.576;2024-03-07T09:47:51;23.83;;;9.82;;
81607;SDS011;71022;48.122;11.576;2024-03-07T09:50:20;25.08;;;10.85;;
81607;SDS011;71022;48.122;11.576;2024-03-07T09:52:50;28.85;;;10.82;;
81607;SDS011;71022;48.122;11.576;2024-03-07T09:55:22;26.88;;;11.38;;
81607;SDS011;71022;48.122;11.576;2024-03-07T09:57:53;24.77;;;10.00;;
81607;SDS011;71022;48.122;11.576;2024-03-07T10:00:24;26.35;;;11.10;;
81607;SDS011;71022;48.122;11.576;2024-03-07T10:03:00;29.33;;;11.90;;
81607;SDS011;71022;48.122;11.576;2024-03-07T10:05:33;26.73;;;10.80;;
81607;SDS011;71022;48.122;11.576;2024-03-07T10:08:01;25.50;;;11.02;;
81607;SDS011;71022;48.122;11.576;2024-03-07T10:10:29;27.52;;;12.20;;
81607;SDS011;71022;48.122;11.576;2024-03-07T10:12:58;26.88;;;10.65;;
81607;SDS011;71022;48.122;11.576;2024-03-07T10:15:29;25.88;;;11.20;;
81607;SDS011;71022;48.122;11.576;2024-03-07T10:17:58;25.55;;;11.15;;
81607;SDS011;71022;48.122;11.576;2024-03-07T10:20:26;28.33;;;10.95;;
81607;SDS011;71022;48.122;11.576;2024-03-07T10:22:55;29.80;;;12.25;;
81607;SDS011;71022;48.122;11.576;2024-03-07T10:25:25;26.50;;;10.68;;
81607;SDS011;71022;48.122;11.576;2024-03-07T10:27:56;24.15;;;10.38;;
81607;SDS011;71022;48.122;11.576;2024-03-07T10:30:28;24.08;;;9.52;;
81607;SDS011;71022;48.122;11.576;2024-03-07T10:32:56;24.15;;;10.07;;
81607;SDS011;71022;48.122;11.576;2024-03-07T10:35:28;26.42;;;10.52;;
81607;SDS011;71022;48.122;11.576;2024-03-07T10:37:58;22.88;;;9.70;;
81607;SDS011;71022;48.122;11.576;2024-03-07T10:40:33;25.23;;;9.93;;
81607;SDS011;71022;48.122;11.576;2024-03-07T10:43:09;26.88;;;10.30;;
81607;SDS011;71022;48.122;11.576;2024-03-07T10:45:43;27.30;;;10.30;;
81607;SDS011;71022;48.122;11.576;2024-03-07T10:48:13;25.02;;;10.82;;
81607;SDS011;71022;48.122;11.576;2024-03-07T11:01:39;25.83;;;10.65;;
81607;SDS011;71022;48.122;11.576;2024-03-07T11:04:11;25.45;;;10.38;;
81607;SDS011;71022;48.122;11.576;2024-03-07T11:06:41;26.95;;;10.25;;
81607;SDS011;71022;48.122;11.576;2024-03-07T11:09:09;23.30;;;9.32;;
81607;SDS011;71022;48.122;11.576;2024-03-07T11:11:38;22.92;;;9.90;;
81607;SDS011;71022;48.122;11.576;2024-03-07T11:14:11;26.23;;;11.00;;
81607;SDS011;71022;48.122;11.576;2024-03-07T11:16:39;22.13;;;10.18;;
81607;SDS011;71022;48.122;11.576;2024-03-07T11:19:17;19.75;;;8.45;;
81607;SDS011;71022;48.122;11.576;2024-03-07T11:21:49;22.42;;;9.05;;
81607;SDS011;71022;48.122;11.576;2024-03-07T11:24:29;19.50;;;8.63;;
81607;SDS011;71022;48.122;11.576;2024-03-07T11:27:03;22.45;;;8.82;;
81607;SDS011;71022;48.122;11.576;2024-03-07T11:32:13;23.27;;;8.70;;
81607;SDS011;71022;48.122;11.576;2024-03-07T11:34:42;23.23;;;8.80;;
81607;SDS011;71022;48.122;11.576;2024-03-07T11:37:17;22.60;;;9.05;;
81607;SDS011;71022;48.122;11.576;2024-03-07T11:39:49;25.58;;;10.20;;
81607;SDS011;71022;48.122;11.576;2024-03-07T11:44:49;22.40;;;8.98;;
81607;SDS011;71022;48.122;11.576;2024-03-07T11:47:18;26.08;;;9.35;;
81607;SDS011;71022;48.122;11.576;2024-03-07T11:49:45;23.83;;;10.68;;
81607;SDS011;71022;48.122;11.576;2024-03-07T11:52:16;23.70;;;9.98;;
81607;SDS011;71022;48.122;11.576;2024-03-07T11:54:43;23.52;;;8.77;;
81607;SDS011;71022;48.122;11.576;2024-03-07T11:57:15;21.42;;;8.70;;
81607;SDS011;71022;48.122;11.576;2024-03-07T11:59:53;21.58;;;9.27;;
81607;SDS011;71022;48.122;11.576;2024-03-07T12:02:20;26.30;;;9.18;;
81607;SDS011;71022;48.122;11.576;2024-03-07T12:04:50;21.63;;;8.45;;
81607;SDS011;71022;48.122;11.576;2024-03-07T12:07:18;21.90;;;8.88;;
81607;SDS011;71022;48.122;11.576;2024-03-07T12:09:49;22.67;;;9.45;;
81607;SDS011;71022;48.122;11.576;2024-03-07T12:12:22;23.65;;;9.35;;
81607;SDS011;71022;48.122;11.576;2024-03-07T12:14:52;23.98;;;9.38;;
81607;SDS011;71022;48.122;11.576;2024-03-07T12:17:20;24.60;;;9.82;;
81607;SDS011;71022;48.122;11.576;2024-03-07T12:19:48;20.10;;;8.43;;
81607;SDS011;71022;48.122;11.576;2024-03-07T12:22:21;22.20;;;8.68;;
81607;SDS011;71022;48.122;11.576;2024-03-07T12:24:59;22.08;;;8.68;;
81607;SDS011;71022;48.122;11.576;2024-03-07T12:27:32;21.58;;;9.05;;
81607;SDS011;71022;48.122;11.576;2024-03-07T12:30:00;24.50;;;9.82;;
81607;SDS011;71022;48.122;11.576;2024-03-07T12:32:34;26.48;;;9.98;;
81607;SDS011;71022;48.122;11.576;2024-03-07T12:35:04;23.98;;;10.50;;
81607;SDS011;71022;48.122;11.576;2024-03-07T12:37:34;23.70;;;9.90;;
81607;SDS011;71022;48.122;11.576;2024-03-07T12:40:10;24.55;;;10.07;;
81607;SDS011;71022;48.122;11.576;2024-03-07T12:42:38;24.08;;;9.80;;
81607;SDS011;71022;48.122;11.576;2024-03-07T12:45:06;23.23;;;9.35;;
81607;SDS011;71022;48.122;11.576;2024-03-07T12:47:33;22.77;;;8.73;;
81607;SDS011;71022;48.122;11.576;2024-03-07T12:50:02;26.75;;;10.02;;
81607;SDS011;71022;48.122;11.576;2024-03-07T12:52:34;22.65;;;8.95;;
81607;SDS011;71022;48.122;11.576;2024-03-07T12:55:01;24.17;;;9.15;;
81607;SDS011;71022;48.122;11.576;2024-03-07T12:57:29;23.88;;;8.77;;
81607;SDS011;71022;48.122;11.576;2024-03-07T12:59:56;20.35;;;9.07;;
81607;SDS011;71022;48.122;11.576;2024-03-07T13:02:23;28.13;;;11.48;;
81607;SDS011;71022;48.122;11.576;2024-03-07T13:04:54;20.40;;;8.77;;
81607;SDS011;71022;48.122;11.576;2024-03-07T13:07:22;26.40;;;8.90;;
81607;SDS011;71022;48.122;11.576;2024-03-07T13:09:50;21.92;;;8.70;;
81607;SDS011;71022;48.122;11.576;2024-03-07T13:12:17;20.15;;;8.32;;
81607;SDS011;71022;48.122;11.576;2024-03-07T13:14:44;26.52;;;10.57;;
81607;SDS011;71022;48.122;11.576;2024-03-07T13:17:12;22.77;;;8.93;;
81607;SDS011;71022;48.122;11.576;2024-03-07T13:19:40;22.00;;;9.13;;
81607;SDS011;71022;48.122;11.576;2024-03-07T13:22:10;21.15;;;8.75;;
81607;SDS011;71022;48.122;11.576;2024-03-07T13:24:39;22.80;;;9.25;;
81607;SDS011;71022;48.122;11.576;2024-03-07T13:27:06;23.27;;;9.70;;
81607;SDS011;71022;48.122;11.576;2024-03-07T13:29:38;22.45;;;9.38;;
81607;SDS011;71022;48.122;11.576;2024-03-07T13:32:06;23.27;;;9.32;;
81607;SDS011;71022;48.122;11.576;2024-03-07T13:34:33;24.85;;;9.63;;
81607;SDS011;71022;48.122;11.576;2024-03-07T13:37:01;24.92;;;9.60;;
81607;SDS011;71022;48.122;11.576;2024-03-07T13:39:28;23.95;;;9.27;;
81607;SDS011;71022;48.122;11.576;2024-03-07T13:41:55;22.05;;;8.70;;
81607;SDS011;71022;48.122;11.576;2024-03-07T13:44:23;20.50;;;9.35;;
81607;SDS011;71022;48.122;11.576;2024-03-07T13:46:51;24.25;;;10.13;;
81607;SDS011;71022;48.122;11.576;2024-03-07T13:49:19;23.70;;;8.90;;
81607;SDS011;71022;48.122;11.576;2024-03-07T13:51:50;22.67;;;9.00;;
81607;SDS011;71022;48.122;11.576;2024-03-07T13:54:19;22.35;;;9.77;;
81607;SDS011;71022;48.122;11.576;2024-03-07T13:57:13;20.48;;;8.43;;
81607;SDS011;71022;48.122;11.576;2024-03-07T14:02:52;19.38;;;7.28;;
81607;SDS011;71022;48.122;11.576;2024-03-07T14:17:44;19.67;;;7.30;;
81607;SDS011;71022;48.122;11.576;2024-03-07T14:23:13;19.08;;;7.75;;
81607;SDS011;71022;48.122;11.576;2024-03-07T14:31:08;22.20;;;9.18;;
81607;SDS011;71022;48.122;11.576;2024-03-07T14:33:48;21.23;;;8.45;;
81607;SDS011;71022;48.122;11.576;2024-03-07T14:39:12;19.83;;;8.35;;
81607;SDS011;71022;48.122;11.576;2024-03-07T14:41:50;20.65;;;9.02;;
81607;SDS011;71022;48.122;11.576;2024-03-07T14:44:21;22.52;;;9.23;;
81607;SDS011;71022;48.122;11.576;2024-03-07T14:46:50;24.50;;;9.00;;
81607;SDS011;71022;48.122;11.576;2024-03-07T14:49:22;22.88;;;9.10;;
81607;SDS011;71022;48.122;11.576;2024-03-07T14:51:50;24.08;;;8.85;;
81607;SDS011;71022;48.122;11.576;2024-03-07T14:54:27;26.10;;;9.57;;
81607;SDS011;71022;48.122;11.576;2024-03-07T14:56:55;24.65;;;9.85;;
81607;SDS011;71022;48.122;11.576;2024-03-07T14:59:22;22.17;;;8.55;;
81607;SDS011;71022;48.122;11.576;2024-03-07T15:01:50;19.52;;;7.63;;
81607;SDS011;71022;48.122;11.576;2024-03-07T15:04:17;22.73;;;8.90;;
81607;SDS011;71022;48.122;11.576;2024-03-07T15:06:45;21.92;;;8.90;;
81607;SDS011;71022;48.122;11.576;2024-03-07T15:09:13;22.80;;;8.23;;
81607;SDS011;71022;48.122;11.576;2024-03-07T15:11:41;22.83;;;8.55;;
81607;SDS011;71022;48.122;11.576;2024-03-07T15:14:09;22.90;;;9.10;;
81607;SDS011;71022;48.122;11.576;2024-03-07T15:16:37;22.48;;;8.93;;